CheckWX is a tool to help pilots better visualize weather data.  It is not intended as a substitute for an official pre-flight weather briefing.

04:54:19 UTC

KGUS METAR
Grissom ARB Airport
Peru, Indiana, USA
Current

58 mins ago

KGUS 270356Z AUTO 00000KT 10SM CLR 25/21 A3013 RMK AO2 SLP200 T02500207 $
Observed
Jun-27 @ 03:56 UTC
Visibility
10 SM
Flight Rules
VFR
Cloud Levels
  • Clear skies
Temperature
25°C / 77°F
Dewpoint
21°C / 70°F
Humidity
79%
Altimeter
30.13" Hg
Pressure
1020.32 hPa
Previous

2 hours ago

KGUS 270256Z AUTO 22004KT 10SM CLR 25/22 A3011 RMK AO2 SLP194 T02460219 52015 $
Observed
Jun-27 @ 02:56 UTC
Wind
  • 220° at 4 KTS
Visibility
10 SM
Flight Rules
VFR
Cloud Levels
  • Clear skies
Temperature
25°C / 77°F
Dewpoint
22°C / 72°F
Humidity
83%
Altimeter
30.11" Hg
Pressure
1019.62 hPa
Previous

3 hours ago

KGUS 270156Z 24008KT 10SM OVC180 26/21 A3009 RMK AO2A SLP187 T02560206 $
Observed
Jun-27 @ 01:56 UTC
Wind
  • 240° at 8 KTS
Visibility
10 SM
Flight Rules
VFR
Cloud Levels
  • Overcast at 18,000' AGL
Temperature
26°C / 79°F
Dewpoint
21°C / 70°F
Humidity
74%
Altimeter
30.09" Hg
Pressure
1018.92 hPa